Time;durP1;ratioP1;P1;durP2;ratioP2;P2;SDS_P1;SDS_P2;PMS_P1;PMS_P2;Temp;Humidity;BMP_temperature;BMP_pressure;BME280_temperature;BME280_humidity;BME280_pressure;Samples;Min_cycle;Max_cycle;Signal;HPM_P1;HPM_P2
2022/09/25 00:01:30;;;;;;;9.10;3.78;;;8.60;99.90;;;;;;4805746;29;20042;-68
2022/09/25 00:03:55;;;;;;;7.50;3.90;;;8.60;99.90;;;;;;4816795;29;20062;-67
2022/09/25 00:06:24;;;;;;;8.52;3.95;;;8.70;99.90;;;;;;4805805;29;20392;-68
2022/09/25 00:08:51;;;;;;;10.15;4.32;;;8.60;99.90;;;;;;4805311;29;20395;-68
2022/09/25 00:11:20;;;;;;;8.98;4.07;;;8.60;99.90;;;;;;4816675;29;20042;-67
2022/09/25 00:13:47;;;;;;;9.55;3.88;;;8.60;99.90;;;;;;4810416;29;20073;-67
2022/09/25 00:16:16;;;;;;;7.15;3.80;;;8.60;99.90;;;;;;4823297;29;20058;-68
2022/09/25 00:21:30;;;;;;;7.20;4.00;;;8.60;99.90;;;;;;4821306;29;20087;-68
2022/09/25 00:23:59;;;;;;;10.35;4.03;;;8.60;99.90;;;;;;4820447;29;20042;-68
2022/09/25 00:26:27;;;;;;;10.40;4.20;;;8.60;99.90;;;;;;4806629;29;20042;-68
2022/09/25 00:28:53;;;;;;;9.65;4.40;;;8.60;99.90;;;;;;4820540;29;20050;-67
2022/09/25 00:31:23;;;;;;;7.80;3.97;;;8.50;99.90;;;;;;4803328;29;20054;-68
2022/09/25 00:33:52;;;;;;;9.63;4.20;;;8.60;99.90;;;;;;4819712;29;20137;-67
2022/09/25 00:36:19;;;;;;;8.05;4.70;;;8.60;99.90;;;;;;4823485;29;20042;-68
2022/09/25 00:38:47;;;;;;;9.18;4.28;;;8.50;99.90;;;;;;4809117;29;20065;-68
2022/09/25 00:41:19;;;;;;;8.30;3.97;;;8.50;99.90;;;;;;4804835;29;20414;-68
2022/09/25 00:43:50;;;;;;;11.85;4.57;;;8.50;99.90;;;;;;4823910;29;20043;-68
2022/09/25 00:46:21;;;;;;;9.27;4.40;;;8.50;99.90;;;;;;4825785;29;20065;-68
2022/09/25 00:49:02;;;;;;;8.38;4.35;;;8.50;99.90;;;;;;4824873;29;20054;-68
2022/09/25 00:51:33;;;;;;;6.90;3.70;;;8.40;99.90;;;;;;4825675;29;20057;-68
2022/09/25 00:54:03;;;;;;;6.63;3.65;;;8.40;99.90;;;;;;4825272;29;20107;-68
2022/09/25 00:56:36;;;;;;;7.15;3.55;;;8.40;99.90;;;;;;4802001;29;20050;-67
2022/09/25 00:59:02;;;;;;;7.05;4.00;;;8.30;99.90;;;;;;4817188;29;20065;-68
2022/09/25 01:01:27;;;;;;;9.80;3.78;;;8.30;99.90;;;;;;4821176;29;20042;-67
2022/09/25 01:03:54;;;;;;;8.27;4.22;;;8.30;99.90;;;;;;4822926;29;20050;-68
2022/09/25 01:06:21;;;;;;;8.88;4.07;;;8.30;99.90;;;;;;4808538;29;20061;-69
2022/09/25 01:08:48;;;;;;;7.03;3.72;;;8.30;99.90;;;;;;4823967;29;20050;-68
2022/09/25 01:11:15;;;;;;;6.35;3.45;;;8.20;99.90;;;;;;4806809;29;20082;-68
2022/09/25 01:13:41;;;;;;;6.38;3.97;;;8.20;99.90;;;;;;4821835;29;20130;-67
2022/09/25 01:16:19;;;;;;;7.50;3.67;;;8.20;99.90;;;;;;4824189;29;20508;-67
2022/09/25 01:19:16;;;;;;;6.32;3.50;;;8.10;99.90;;;;;;4825796;29;20380;-67
2022/09/25 01:21:51;;;;;;;7.55;4.00;;;8.10;99.90;;;;;;4808297;29;20069;-68
2022/09/25 01:25:00;;;;;;;11.35;4.00;;;8.10;99.90;;;;;;4807063;29;20082;-67
2022/09/25 01:27:39;;;;;;;6.47;3.42;;;8.10;99.90;;;;;;4806424;29;20055;-68
2022/09/25 01:30:09;;;;;;;7.28;3.88;;;8.00;99.90;;;;;;4803943;29;20051;-66
2022/09/25 01:33:13;;;;;;;5.28;3.38;;;8.00;99.90;;;;;;4823334;29;20061;-67
2022/09/25 01:35:46;;;;;;;13.23;4.40;;;8.00;99.90;;;;;;4813503;29;20050;-68
2022/09/25 01:38:18;;;;;;;7.88;4.00;;;8.00;99.90;;;;;;4806958;29;20061;-69
2022/09/25 01:40:57;;;;;;;7.50;4.30;;;8.00;99.90;;;;;;4808311;29;20046;-68
2022/09/25 01:43:42;;;;;;;7.53;4.32;;;8.00;99.90;;;;;;4819262;29;20173;-68
2022/09/25 01:46:14;;;;;;;8.50;4.30;;;8.00;99.90;;;;;;4801588;29;20115;-67
2022/09/25 01:48:43;;;;;;;10.07;4.93;;;8.00;99.90;;;;;;4806463;29;20058;-68
2022/09/25 01:51:22;;;;;;;10.88;4.25;;;8.00;99.90;;;;;;4824527;29;20356;-67
2022/09/25 01:53:52;;;;;;;7.82;3.33;;;8.00;99.90;;;;;;4791130;29;20537;-67
2022/09/25 01:56:30;;;;;;;5.07;3.53;;;7.90;99.90;;;;;;4817797;29;20058;-68
2022/09/25 01:59:19;;;;;;;10.10;4.15;;;7.90;99.90;;;;;;4823450;29;20042;-68
2022/09/25 02:01:46;;;;;;;6.53;3.75;;;7.90;99.90;;;;;;4759668;29;20058;-68
2022/09/25 02:04:27;;;;;;;6.43;3.72;;;7.80;99.90;;;;;;4821787;29;20506;-68
2022/09/25 02:06:57;;;;;;;6.15;3.35;;;7.70;99.90;;;;;;4822269;29;20049;-67
2022/09/25 02:09:46;;;;;;;5.68;3.13;;;7.70;99.90;;;;;;4805243;29;20054;-67
2022/09/25 02:12:21;;;;;;;9.40;4.05;;;7.80;99.90;;;;;;4825095;29;20449;-67
2022/09/25 02:14:52;;;;;;;6.93;3.63;;;7.80;99.90;;;;;;4821252;29;20054;-67
2022/09/25 02:23:07;;;;;;;7.78;3.30;;;7.80;99.90;;;;;;4824619;29;20337;-66
2022/09/25 02:25:45;;;;;;;7.95;3.35;;;7.80;99.90;;;;;;4823818;29;20046;-67
2022/09/25 02:28:10;;;;;;;10.45;3.95;;;7.80;99.90;;;;;;4792767;29;20050;-67
2022/09/25 02:30:36;;;;;;;12.55;3.78;;;7.80;99.90;;;;;;4806472;29;20503;-67
2022/09/25 02:33:02;;;;;;;7.13;3.00;;;7.70;99.90;;;;;;4808777;29;20054;-67
2022/09/25 02:35:27;;;;;;;14.32;3.58;;;7.70;99.90;;;;;;4818762;29;20204;-67
2022/09/25 02:37:56;;;;;;;7.43;3.55;;;7.70;99.90;;;;;;4807064;29;20046;-67
2022/09/25 02:40:33;;;;;;;5.93;3.25;;;7.70;99.90;;;;;;4805789;29;20047;-67
2022/09/25 02:43:21;;;;;;;6.45;3.88;;;7.70;99.90;;;;;;4824955;29;20057;-66
2022/09/25 02:46:04;;;;;;;6.85;3.63;;;7.70;99.90;;;;;;4820941;29;20086;-67
2022/09/25 02:49:00;;;;;;;7.18;3.28;;;7.70;99.90;;;;;;4804986;29;20074;-67
2022/09/25 02:51:40;;;;;;;6.80;3.28;;;7.70;99.90;;;;;;4823338;29;20194;-66
2022/09/25 02:54:20;;;;;;;6.40;3.13;;;7.70;99.90;;;;;;4806646;29;20050;-67
2022/09/25 03:00:07;;;;;;;5.97;3.63;;;7.60;99.90;;;;;;4802210;29;20058;-67
2022/09/25 03:02:34;;;;;;;6.75;3.15;;;7.60;99.90;;;;;;4819322;29;20050;-67
2022/09/25 03:05:02;;;;;;;6.97;3.67;;;7.60;99.90;;;;;;4820944;29;20098;-67
2022/09/25 03:07:28;;;;;;;8.23;3.15;;;7.50;99.90;;;;;;4808590;29;20058;-67
2022/09/25 03:09:56;;;;;;;4.93;2.90;;;7.50;99.90;;;;;;4819234;29;20372;-66
2022/09/25 03:12:22;;;;;;;7.25;3.60;;;7.50;99.90;;;;;;4779153;29;20057;-67
2022/09/25 03:14:48;;;;;;;9.20;3.92;;;7.50;99.90;;;;;;4823835;29;20336;-66
2022/09/25 03:17:16;;;;;;;8.02;3.40;;;7.50;99.90;;;;;;4805048;29;20058;-67
2022/09/25 03:19:42;;;;;;;8.07;3.58;;;7.50;99.90;;;;;;4807336;29;20073;-66
2022/09/25 03:22:07;;;;;;;8.52;3.58;;;7.60;99.90;;;;;;4822217;29;20424;-66
2022/09/25 03:24:33;;;;;;;5.25;3.58;;;7.60;99.90;;;;;;4821239;29;20390;-66
2022/09/25 03:26:59;;;;;;;7.47;3.90;;;7.60;99.90;;;;;;4805704;29;20046;-66
2022/09/25 03:29:24;;;;;;;7.57;3.65;;;8.00;99.90;;;;;;4792018;29;20042;-67
2022/09/25 03:31:50;;;;;;;9.10;3.70;;;7.60;99.90;;;;;;4822341;29;20054;-67
2022/09/25 03:34:18;;;;;;;6.15;3.60;;;7.60;99.90;;;;;;4821176;29;20054;-67
2022/09/25 03:36:46;;;;;;;7.10;3.47;;;7.60;99.90;;;;;;4819270;29;20058;-67
2022/09/25 03:39:14;;;;;;;8.15;3.83;;;7.60;99.90;;;;;;4804358;29;20046;-67
2022/09/25 03:41:40;;;;;;;9.50;4.10;;;7.60;99.90;;;;;;4805915;29;20132;-67
2022/09/25 03:44:05;;;;;;;9.40;4.22;;;7.60;99.90;;;;;;4822062;29;20479;-67
2022/09/25 03:46:33;;;;;;;6.20;3.85;;;7.60;99.90;;;;;;4796081;29;20117;-67
2022/09/25 03:49:00;;;;;;;12.07;4.10;;;7.60;99.90;;;;;;4807165;29;20434;-66
2022/09/25 03:51:27;;;;;;;10.13;4.03;;;7.60;99.90;;;;;;4821630;29;20381;-67
2022/09/25 03:53:53;;;;;;;13.68;4.00;;;7.60;99.90;;;;;;4822700;29;20073;-67
2022/09/25 03:56:22;;;;;;;8.25;3.80;;;7.60;99.90;;;;;;4822078;29;20436;-67
2022/09/25 03:58:49;;;;;;;6.90;3.97;;;7.60;99.90;;;;;;4817345;29;20047;-68
2022/09/25 04:01:18;;;;;;;17.63;4.63;;;7.60;99.90;;;;;;4804604;29;20047;-67
2022/09/25 04:03:46;;;;;;;12.63;4.32;;;7.60;99.90;;;;;;4821796;29;20396;-67
2022/09/25 04:06:16;;;;;;;11.07;3.83;;;7.60;99.90;;;;;;4819175;29;20042;-68
2022/09/25 04:08:41;;;;;;;7.53;4.00;;;7.60;99.90;;;;;;4825197;29;20046;-67
2022/09/25 04:11:07;;;;;;;9.90;4.18;;;7.60;99.90;;;;;;4808320;29;20044;-67
2022/09/25 04:13:39;;;;;;;6.68;3.72;;;7.60;99.90;;;;;;4808955;29;20086;-67
2022/09/25 04:16:06;;;;;;;9.73;4.63;;;7.50;99.90;;;;;;4825623;29;20038;-67
2022/09/25 04:18:32;;;;;;;7.57;3.40;;;7.50;99.90;;;;;;4823251;29;20058;-67
2022/09/25 04:20:58;;;;;;;8.02;3.58;;;7.50;99.90;;;;;;4825627;29;20053;-67
2022/09/25 04:23:24;;;;;;;8.15;3.58;;;7.50;99.90;;;;;;4826009;29;20365;-67
2022/09/25 04:25:50;;;;;;;7.60;3.28;;;7.50;99.90;;;;;;4825475;29;20042;-67
2022/09/25 04:28:16;;;;;;;6.80;3.05;;;7.50;99.90;;;;;;4810084;29;20050;-67
2022/09/25 04:30:41;;;;;;;6.50;3.28;;;7.50;99.90;;;;;;4808700;29;20077;-67
2022/09/25 04:35:53;;;;;;;7.78;3.50;;;7.50;99.90;;;;;;4811973;29;20116;-67
2022/09/25 04:38:18;;;;;;;5.85;3.47;;;7.40;99.90;;;;;;4824659;29;20054;-67
2022/09/25 04:40:44;;;;;;;5.90;3.22;;;7.50;99.90;;;;;;4807986;29;20080;-68
2022/09/25 04:43:10;;;;;;;7.50;3.30;;;7.40;99.90;;;;;;4807432;29;20399;-67
2022/09/25 04:45:36;;;;;;;7.43;2.80;;;7.50;99.90;;;;;;4825111;29;20384;-67
2022/09/25 04:48:03;;;;;;;7.32;3.88;;;7.50;99.90;;;;;;4806316;29;20092;-67
2022/09/25 04:50:29;;;;;;;8.75;3.67;;;7.50;99.90;;;;;;4814866;29;20042;-67
2022/09/25 04:52:59;;;;;;;5.55;3.42;;;7.40;99.90;;;;;;4805733;29;20050;-67
2022/09/25 04:55:26;;;;;;;6.13;3.40;;;7.50;99.90;;;;;;4823412;29;20054;-67
2022/09/25 04:57:57;;;;;;;10.27;4.40;;;7.50;99.90;;;;;;4824362;29;20064;-67
2022/09/25 05:00:25;;;;;;;8.43;4.05;;;7.50;99.90;;;;;;4826213;29;20137;-67
2022/09/25 05:02:51;;;;;;;11.93;4.03;;;7.60;99.90;;;;;;4806745;29;20046;-67
2022/09/25 05:05:18;;;;;;;9.68;4.28;;;7.60;99.90;;;;;;4823540;29;20332;-67
2022/09/25 05:07:54;;;;;;;8.63;3.83;;;7.60;99.90;;;;;;4823388;29;20054;-67
2022/09/25 05:10:21;;;;;;;9.55;3.88;;;7.60;99.90;;;;;;4823261;29;20093;-66
2022/09/25 05:12:47;;;;;;;5.50;3.95;;;7.60;99.90;;;;;;4833989;29;20042;-67
2022/09/25 05:15:14;;;;;;;7.93;4.25;;;7.60;99.90;;;;;;4833147;29;20064;-67
2022/09/25 05:17:39;;;;;;;9.95;6.10;;;7.50;99.90;;;;;;4836961;29;20049;-67
2022/09/25 05:20:05;;;;;;;16.05;9.18;;;7.60;99.90;;;;;;4807979;29;20066;-67
2022/09/25 05:22:31;;;;;;;15.88;7.72;;;7.50;99.90;;;;;;4824950;29;20069;-66
2022/09/25 05:24:56;;;;;;;15.25;7.75;;;7.60;99.90;;;;;;4806308;29;20042;-67
2022/09/25 05:27:22;;;;;;;12.88;6.88;;;7.50;99.90;;;;;;4823566;29;20502;-67
2022/09/25 05:29:48;;;;;;;8.65;5.07;;;7.50;99.90;;;;;;4809316;29;20054;-67
2022/09/25 05:32:14;;;;;;;9.68;5.40;;;7.50;99.90;;;;;;4806077;29;20055;-67
2022/09/25 05:34:40;;;;;;;7.75;4.80;;;7.50;99.90;;;;;;4819549;29;20045;-67
2022/09/25 05:37:05;;;;;;;9.95;5.50;;;7.50;99.90;;;;;;4823036;29;20403;-67
2022/09/25 05:39:31;;;;;;;7.13;3.95;;;7.50;99.90;;;;;;4808001;29;20047;-67
2022/09/25 05:41:57;;;;;;;8.75;3.90;;;7.50;99.90;;;;;;4819573;29;20119;-67
2022/09/25 05:44:23;;;;;;;5.95;3.70;;;7.40;99.90;;;;;;4802429;29;20061;-67
2022/09/25 05:46:49;;;;;;;7.15;3.85;;;7.40;99.90;;;;;;4801375;29;20495;-67
2022/09/25 05:49:15;;;;;;;8.85;4.20;;;7.40;99.90;;;;;;4820722;29;20186;-67
2022/09/25 05:51:43;;;;;;;6.80;4.07;;;7.40;99.90;;;;;;4805330;29;20046;-67
2022/09/25 05:54:09;;;;;;;9.40;4.28;;;7.40;99.90;;;;;;4802864;29;20136;-67
2022/09/25 05:56:35;;;;;;;10.40;4.22;;;7.40;99.90;;;;;;4823646;29;20051;-67
2022/09/25 05:59:01;;;;;;;7.70;3.55;;;7.40;99.90;;;;;;4805443;29;20080;-67
2022/09/25 06:01:26;;;;;;;6.03;3.65;;;7.50;99.90;;;;;;4804341;29;20050;-66
2022/09/25 06:03:52;;;;;;;6.88;3.45;;;7.60;99.90;;;;;;4807596;29;20046;-68
2022/09/25 06:06:17;;;;;;;8.18;3.60;;;7.60;99.90;;;;;;4823286;29;20077;-67
2022/09/25 06:08:43;;;;;;;9.30;4.28;;;7.70;99.90;;;;;;4801455;29;20046;-67
2022/09/25 06:11:10;;;;;;;6.80;4.28;;;7.70;99.90;;;;;;4804248;29;20054;-67
2022/09/25 06:13:36;;;;;;;8.20;4.20;;;7.80;99.90;;;;;;4820905;29;20046;-67
2022/09/25 06:16:04;;;;;;;6.32;4.15;;;7.80;99.90;;;;;;4822463;29;20064;-67
2022/09/25 06:18:30;;;;;;;7.90;3.97;;;7.80;99.90;;;;;;4807558;29;20058;-67
2022/09/25 06:21:01;;;;;;;8.55;3.72;;;7.90;99.90;;;;;;4807592;29;20147;-67
2022/09/25 06:23:27;;;;;;;6.82;3.83;;;7.90;99.90;;;;;;4823914;29;20057;-67
2022/09/25 06:25:52;;;;;;;6.75;3.33;;;8.00;99.90;;;;;;4807883;29;20054;-67
2022/09/25 06:28:18;;;;;;;8.40;3.53;;;8.00;99.90;;;;;;4807503;29;20054;-66
2022/09/25 06:30:44;;;;;;;10.45;3.38;;;8.10;99.90;;;;;;4807263;29;20157;-66
2022/09/25 06:33:12;;;;;;;7.25;3.53;;;8.20;99.90;;;;;;4807698;29;20064;-67
2022/09/25 06:35:43;;;;;;;5.47;3.17;;;8.30;99.90;;;;;;4824660;29;20057;-67
2022/09/25 06:38:09;;;;;;;7.97;3.58;;;8.40;99.90;;;;;;4823605;29;20085;-67
2022/09/25 06:40:36;;;;;;;5.70;3.03;;;8.40;99.90;;;;;;4818348;29;20523;-66
2022/09/25 06:43:05;;;;;;;7.00;3.40;;;8.50;99.90;;;;;;4824179;29;20057;-66
2022/09/25 06:45:32;;;;;;;5.07;3.60;;;8.60;99.90;;;;;;4815704;29;20103;-68
2022/09/25 06:48:03;;;;;;;8.95;3.30;;;8.70;99.90;;;;;;4821041;29;20054;-67
2022/09/25 06:50:36;;;;;;;7.15;3.47;;;8.70;99.90;;;;;;4819548;29;20543;-67
2022/09/25 06:53:02;;;;;;;8.20;3.28;;;8.80;99.90;;;;;;4819592;29;20062;-67
2022/09/25 06:55:31;;;;;;;4.53;2.90;;;8.90;99.90;;;;;;4821861;29;20131;-67
2022/09/25 06:57:57;;;;;;;5.90;3.47;;;9.00;99.90;;;;;;4823945;29;20042;-67
2022/09/25 07:00:22;;;;;;;4.97;3.03;;;9.10;99.90;;;;;;4804615;29;20042;-67
2022/09/25 07:05:33;;;;;;;4.80;2.60;;;9.30;99.90;;;;;;4821581;29;20046;-67
2022/09/25 07:07:58;;;;;;;8.60;2.97;;;9.40;99.90;;;;;;4822329;29;20098;-66
2022/09/25 07:10:24;;;;;;;8.63;3.22;;;9.50;99.90;;;;;;4807418;29;20046;-67
2022/09/25 07:12:50;;;;;;;6.25;2.92;;;9.60;99.90;;;;;;4822114;29;20045;-67
2022/09/25 07:15:15;;;;;;;6.15;2.90;;;9.70;99.90;;;;;;4806987;29;20038;-67
2022/09/25 07:17:42;;;;;;;5.70;3.72;;;9.80;99.90;;;;;;4806748;29;20456;-67
2022/09/25 07:20:11;;;;;;;7.75;3.45;;;9.90;99.90;;;;;;4806169;29;20051;-67
2022/09/25 07:22:37;;;;;;;4.60;3.10;;;10.00;99.90;;;;;;4806823;29;20471;-67
2022/09/25 07:25:04;;;;;;;6.68;2.35;;;10.10;99.90;;;;;;4806046;29;20540;-67
2022/09/25 07:27:29;;;;;;;7.68;3.20;;;10.20;99.90;;;;;;4823243;29;20042;-67
2022/09/25 07:29:55;;;;;;;4.45;2.50;;;10.40;99.90;;;;;;4823242;29;20491;-67
2022/09/25 07:32:21;;;;;;;3.75;2.15;;;10.50;99.90;;;;;;4806733;29;20187;-66
2022/09/25 07:34:49;;;;;;;5.43;2.20;;;10.60;99.90;;;;;;4806929;29;20157;-67
2022/09/25 07:37:16;;;;;;;4.68;2.17;;;10.70;99.90;;;;;;4811627;29;20124;-66
2022/09/25 07:39:42;;;;;;;3.45;2.38;;;10.90;99.90;;;;;;4806429;29;20038;-67
2022/09/25 07:42:08;;;;;;;4.28;1.85;;;10.90;99.90;;;;;;4806589;29;20043;-67
2022/09/25 07:44:34;;;;;;;5.30;2.35;;;11.10;99.90;;;;;;4822620;29;20081;-67
2022/09/25 07:47:02;;;;;;;5.45;2.10;;;11.20;99.90;;;;;;4823566;29;20046;-66
2022/09/25 07:49:29;;;;;;;5.50;2.00;;;11.30;99.90;;;;;;4806744;29;20388;-67
2022/09/25 07:51:55;;;;;;;7.25;2.65;;;11.40;99.90;;;;;;4821773;29;20049;-67
2022/09/25 07:54:21;;;;;;;6.60;2.95;;;11.60;99.90;;;;;;4822378;29;20046;-67
2022/09/25 07:56:46;;;;;;;3.97;2.55;;;11.70;99.90;;;;;;4800159;29;20165;-66
2022/09/25 07:59:12;;;;;;;4.43;2.15;;;11.80;99.90;;;;;;4806067;29;20395;-67
2022/09/25 08:01:37;;;;;;;6.55;1.95;;;11.90;99.90;;;;;;4822686;29;20094;-67
2022/09/25 08:04:03;;;;;;;4.13;1.63;;;12.00;99.90;;;;;;4822867;29;20042;-67
2022/09/25 08:06:39;;;;;;;3.30;2.00;;;12.20;99.90;;;;;;4806690;29;20042;-66
2022/09/25 08:09:34;;;;;;;6.70;1.67;;;12.50;99.90;;;;;;4806552;29;20507;-66
2022/09/25 08:11:59;;;;;;;5.05;1.42;;;12.40;99.90;;;;;;4806158;29;20129;-67
2022/09/25 08:14:25;;;;;;;3.30;1.30;;;12.50;99.90;;;;;;4823067;29;20121;-67
2022/09/25 08:16:54;;;;;;;2.85;1.45;;;12.60;99.90;;;;;;4819201;29;20049;-66
2022/09/25 08:19:22;;;;;;;4.82;1.58;;;12.70;99.90;;;;;;4816550;29;20082;-67
2022/09/25 08:21:48;;;;;;;5.00;1.30;;;12.80;99.90;;;;;;4822009;29;20050;-67
2022/09/25 08:24:14;;;;;;;7.28;2.17;;;12.90;99.90;;;;;;4821782;29;20077;-67
2022/09/25 08:26:39;;;;;;;4.63;1.25;;;13.00;99.90;;;;;;4822898;29;20424;-67
2022/09/25 08:29:07;;;;;;;2.78;1.10;;;13.20;99.90;;;;;;4822756;29;20046;-67
2022/09/25 08:31:33;;;;;;;5.13;1.27;;;13.30;99.90;;;;;;4804977;29;20042;-67
2022/09/25 08:33:59;;;;;;;2.70;1.23;;;13.40;99.90;;;;;;4806448;29;20042;-67
2022/09/25 08:36:24;;;;;;;5.75;1.30;;;13.60;99.90;;;;;;4805766;29;20100;-67
2022/09/25 08:38:52;;;;;;;3.03;1.00;;;13.70;99.90;;;;;;4805433;29;20078;-67
2022/09/25 08:41:24;;;;;;;5.15;1.30;;;13.80;99.90;;;;;;4822197;29;20046;-67
2022/09/25 08:44:07;;;;;;;3.45;1.17;;;14.00;99.90;;;;;;4820322;29;20043;-68
2022/09/25 08:50:04;;;;;;;6.28;1.10;;;14.50;99.90;;;;;;4820661;29;20107;-67
2022/09/25 08:52:30;;;;;;;;;;;14.30;99.90;;;;;;4821754;29;20484;-68
2022/09/25 08:54:55;;;;;;;2.33;0.70;;;14.40;99.90;;;;;;4807657;29;19978;-68
2022/09/25 08:57:48;;;;;;;5.60;1.17;;;14.50;99.90;;;;;;4809051;29;20086;-68
2022/09/25 09:00:20;;;;;;;5.53;1.10;;;14.60;99.90;;;;;;4825454;29;20125;-68
2022/09/25 09:03:17;;;;;;;3.33;1.05;;;14.70;99.90;;;;;;4808824;29;20058;-68
2022/09/25 09:05:45;;;;;;;2.40;0.85;;;14.90;99.90;;;;;;4808485;29;20038;-68
2022/09/25 09:08:16;;;;;;;4.55;0.80;;;15.10;99.90;;;;;;4824969;29;20046;-67
2022/09/25 09:10:47;;;;;;;5.03;1.08;;;15.30;99.90;;;;;;4793668;29;20045;-68
2022/09/25 09:13:26;;;;;;;3.78;0.80;;;15.50;99.90;;;;;;4825213;29;20402;-68
2022/09/25 09:16:01;;;;;;;2.58;0.93;;;15.60;99.90;;;;;;4824884;29;20038;-68
2022/09/25 09:18:34;;;;;;;3.65;0.77;;;15.60;99.90;;;;;;4825170;29;20054;-68
2022/09/25 09:21:24;;;;;;;4.15;1.33;;;15.50;99.90;;;;;;4825026;29;20457;-68
2022/09/25 09:24:05;;;;;;;4.07;1.05;;;15.40;99.90;;;;;;4825728;29;20096;-68
2022/09/25 09:27:05;;;;;;;5.18;0.90;;;15.30;99.90;;;;;;4825921;29;20054;-68
2022/09/25 09:30:04;;;;;;;3.10;0.82;;;15.30;99.90;;;;;;4825999;29;20057;-67
2022/09/25 09:33:01;;;;;;;1.70;0.80;;;15.30;99.90;;;;;;4808531;29;20391;-68
2022/09/25 09:35:38;;;;;;;7.38;1.30;;;15.20;99.90;;;;;;4802664;29;20042;-68
2022/09/25 09:38:06;;;;;;;6.35;1.10;;;15.20;99.90;;;;;;4815482;29;20123;-68
2022/09/25 09:41:02;;;;;;;5.80;1.08;;;15.20;99.90;;;;;;4817205;29;20050;-67
2022/09/25 09:43:39;;;;;;;4.82;1.05;;;15.10;99.90;;;;;;4823816;29;20117;-67
2022/09/25 09:46:23;;;;;;;5.00;1.10;;;15.20;99.90;;;;;;4824981;29;20050;-67
2022/09/25 09:49:04;;;;;;;2.08;0.77;;;15.10;99.90;;;;;;4807936;29;20063;-67
2022/09/25 09:51:55;;;;;;;5.38;1.20;;;15.00;99.90;;;;;;4822476;29;20082;-67
2022/09/25 09:54:54;;;;;;;5.73;1.20;;;14.80;99.90;;;;;;4814367;29;20487;-67
2022/09/25 09:57:43;;;;;;;6.50;1.38;;;14.50;99.90;;;;;;4820633;29;20283;-67
2022/09/25 10:00:17;;;;;;;6.30;1.08;;;14.70;99.90;;;;;;4803190;29;20452;-69
2022/09/25 10:02:47;;;;;;;1.75;0.82;;;14.10;99.90;;;;;;4807726;29;20051;-67
2022/09/25 10:05:29;;;;;;;5.50;1.00;;;14.00;99.90;;;;;;4824189;29;20253;-67
2022/09/25 10:07:54;;;;;;;2.33;0.90;;;14.00;99.90;;;;;;4823058;29;20110;-67
2022/09/25 10:10:26;;;;;;;3.92;1.02;;;14.00;99.90;;;;;;4807942;29;20472;-67
2022/09/25 10:12:53;;;;;;;1.08;0.55;;;14.00;99.90;;;;;;4808284;29;20089;-67
2022/09/25 10:15:33;;;;;;;2.35;0.82;;;14.10;99.90;;;;;;4821864;29;20167;-67
2022/09/25 10:18:01;;;;;;;0.77;0.60;;;14.30;99.90;;;;;;4816873;29;20054;-67
2022/09/25 10:20:41;;;;;;;3.47;0.95;;;14.50;99.90;;;;;;4818150;29;20180;-67
2022/09/25 10:23:18;;;;;;;2.67;1.08;;;14.70;99.90;;;;;;4814808;29;20043;-67
2022/09/25 10:25:45;;;;;;;0.73;0.60;;;14.90;99.90;;;;;;4822539;29;20043;-67
2022/09/25 10:28:33;;;;;;;3.88;0.80;;;15.00;99.90;;;;;;4823368;29;20145;-67
2022/09/25 10:31:01;;;;;;;3.72;1.05;;;15.10;99.90;;;;;;4805181;29;20050;-69
2022/09/25 10:33:29;;;;;;;4.22;1.17;;;15.30;99.90;;;;;;4823567;29;20110;-67
2022/09/25 10:35:55;;;;;;;4.97;1.08;;;15.40;99.90;;;;;;4823664;29;20038;-67
2022/09/25 10:38:43;;;;;;;2.05;0.65;;;15.60;99.90;;;;;;4823176;29;20391;-67
2022/09/25 10:41:19;;;;;;;5.18;0.80;;;15.70;99.90;;;;;;4823945;29;20460;-67
2022/09/25 10:43:59;;;;;;;3.10;0.70;;;15.80;99.90;;;;;;4817703;29;20495;-67
2022/09/25 10:52:10;;;;;;;2.65;0.68;;;16.10;99.90;;;;;;4823052;29;20047;-67
2022/09/25 10:54:37;;;;;;;1.83;0.63;;;16.20;99.90;;;;;;4822947;29;20065;-67
2022/09/25 10:57:25;;;;;;;2.72;0.93;;;16.10;99.90;;;;;;4807238;29;20046;-67
2022/09/25 10:59:51;;;;;;;2.20;0.68;;;16.20;99.90;;;;;;4823305;29;20046;-67
2022/09/25 11:02:40;;;;;;;2.88;1.05;;;16.30;99.90;;;;;;4807012;29;20057;-67
2022/09/25 11:05:14;;;;;;;2.85;0.70;;;16.40;99.90;;;;;;4820590;29;20042;-67
2022/09/25 11:07:51;;;;;;;1.98;0.70;;;16.40;99.90;;;;;;4806431;29;20050;-67
2022/09/25 11:10:30;;;;;;;4.32;0.95;;;16.60;99.90;;;;;;4821446;29;20054;-67
2022/09/25 11:13:06;;;;;;;1.85;0.50;;;16.70;99.90;;;;;;4790401;29;20476;-67
2022/09/25 11:15:37;;;;;;;3.45;0.90;;;16.60;99.90;;;;;;4807234;29;20050;-67
2022/09/25 11:18:05;;;;;;;2.17;0.60;;;16.70;99.90;;;;;;4806021;29;20046;-67
2022/09/25 11:20:31;;;;;;;1.60;0.52;;;16.80;99.90;;;;;;4807530;29;20038;-67
2022/09/25 11:23:15;;;;;;;1.40;0.50;;;16.80;99.90;;;;;;4805958;29;20364;-67
2022/09/25 11:25:51;;;;;;;2.30;0.70;;;16.80;99.90;;;;;;4821471;29;20456;-67
2022/09/25 11:28:28;;;;;;;2.30;0.77;;;17.00;99.90;;;;;;4804978;29;20070;-67
2022/09/25 11:31:16;;;;;;;2.60;1.10;;;17.10;99.90;;;;;;4807135;29;20065;-67
2022/09/25 11:33:51;;;;;;;3.33;0.90;;;17.10;99.90;;;;;;4818390;29;20125;-67
2022/09/25 11:36:30;;;;;;;5.57;0.90;;;17.10;99.90;;;;;;4823306;29;20046;-67
2022/09/25 11:42:22;;;;;;;2.60;0.90;;;16.90;99.90;;;;;;4809076;29;20050;-67
2022/09/25 11:45:01;;;;;;;2.22;0.90;;;16.70;99.90;;;;;;4817318;29;20158;-67
2022/09/25 11:47:42;;;;;;;2.08;0.60;;;16.50;99.90;;;;;;4823327;29;20400;-67
2022/09/25 11:50:16;;;;;;;2.00;0.70;;;16.40;99.90;;;;;;4823026;29;20566;-67
2022/09/25 11:53:00;;;;;;;1.83;0.70;;;16.30;99.90;;;;;;4823284;29;20061;-67
2022/09/25 11:55:45;;;;;;;2.45;0.70;;;16.30;99.90;;;;;;4823088;29;20051;-67
2022/09/25 11:58:33;;;;;;;3.80;0.70;;;16.20;99.90;;;;;;4823160;29;20062;-67
2022/09/25 12:01:12;;;;;;;3.78;0.77;;;16.20;99.90;;;;;;4823114;29;20492;-67
2022/09/25 12:03:56;;;;;;;2.58;0.80;;;16.10;99.90;;;;;;4823045;29;20404;-67
2022/09/25 12:06:25;;;;;;;3.83;0.98;;;16.00;99.90;;;;;;4823385;29;20053;-67
2022/09/25 12:09:09;;;;;;;4.88;0.95;;;15.90;99.90;;;;;;4822322;29;20099;-67
2022/09/25 12:12:12;;;;;;;2.05;0.60;;;15.80;99.90;;;;;;4823039;29;20507;-67
2022/09/25 12:15:08;;;;;;;2.70;0.60;;;15.80;99.90;;;;;;4792792;29;20486;-67
2022/09/25 12:17:46;;;;;;;2.05;0.60;;;15.70;99.90;;;;;;4814636;29;20130;-67
2022/09/25 12:20:29;;;;;;;2.22;0.70;;;15.60;99.90;;;;;;4822172;29;20050;-67
2022/09/25 12:23:22;;;;;;;2.50;0.70;;;15.50;99.90;;;;;;4822449;29;20142;-67
2022/09/25 12:26:10;;;;;;;3.08;0.75;;;15.30;99.90;;;;;;4805077;29;20046;-67
2022/09/25 12:28:45;;;;;;;2.10;0.60;;;15.20;99.90;;;;;;4811752;29;20420;-67
2022/09/25 12:31:26;;;;;;;2.50;0.70;;;15.10;99.90;;;;;;4812384;29;20079;-67
2022/09/25 12:34:13;;;;;;;2.15;0.60;;;15.10;99.90;;;;;;4794214;29;20054;-67
2022/09/25 12:36:49;;;;;;;3.78;0.90;;;15.10;99.90;;;;;;4825772;29;20043;-67
2022/09/25 12:39:24;;;;;;;1.85;0.70;;;15.30;99.90;;;;;;4809141;29;20093;-67
2022/09/25 12:41:59;;;;;;;3.58;1.13;;;15.40;99.90;;;;;;4825009;29;20059;-67
2022/09/25 12:44:53;;;;;;;1.90;0.80;;;16.00;99.90;;;;;;4823571;29;20043;-67
2022/09/25 12:47:36;;;;;;;1.70;0.60;;;15.70;99.90;;;;;;4815963;29;20105;-67
2022/09/25 12:50:27;;;;;;;1.63;0.63;;;15.90;99.90;;;;;;4824812;29;20050;-67
2022/09/25 12:53:30;;;;;;;2.40;0.50;;;16.20;99.90;;;;;;4797830;29;20054;-67
2022/09/25 12:56:23;;;;;;;2.78;0.80;;;16.40;99.90;;;;;;4804333;29;20046;-67
2022/09/25 12:59:18;;;;;;;2.35;1.02;;;16.60;99.90;;;;;;4821343;29;20042;-67
2022/09/25 13:01:57;;;;;;;0.85;0.50;;;16.60;99.90;;;;;;4825357;29;20086;-67
2022/09/25 13:04:33;;;;;;;1.38;0.60;;;16.50;99.90;;;;;;4820836;29;20043;-66
2022/09/25 13:07:44;;;;;;;1.85;0.50;;;16.30;99.90;;;;;;4819283;29;20136;-66
2022/09/25 13:10:49;;;;;;;2.47;0.73;;;16.10;99.90;;;;;;4819386;29;20053;-65
2022/09/25 13:13:19;;;;;;;2.03;0.93;;;15.80;99.90;;;;;;4805674;29;20046;-65
2022/09/25 13:19:21;;;;;;;2.92;0.70;;;15.60;99.90;;;;;;4818058;29;20513;-65
2022/09/25 13:22:25;;;;;;;1.35;0.52;;;15.50;99.90;;;;;;4805028;29;20105;-65
2022/09/25 13:25:17;;;;;;;1.75;0.70;;;15.30;99.90;;;;;;4719025;30;20037;-65
2022/09/25 13:27:56;;;;;;;1.67;0.65;;;15.30;99.90;;;;;;4719125;30;20454;-65
2022/09/25 13:30:29;;;;;;;2.30;0.90;;;15.60;99.90;;;;;;4772446;29;20057;-65
2022/09/25 13:32:58;;;;;;;5.22;0.95;;;15.30;99.90;;;;;;4794101;29;20031;-66
2022/09/25 13:36:04;;;;;;;0.95;0.52;;;15.40;99.90;;;;;;4824965;29;20041;-65
2022/09/25 13:40:41;;;;;;;2.30;0.80;;;15.50;99.90;;;;;;4823946;29;20057;-65
2022/09/25 13:41:31;;;;;;;3.83;0.60;;;15.90;99.90;;;;;;4823274;29;20357;-65
2022/09/25 13:44:34;;;;;;;1.50;0.40;;;16.00;99.90;;;;;;4822414;29;20049;-65
2022/09/25 13:47:25;;;;;;;2.28;0.60;;;16.30;99.90;;;;;;4819711;29;20440;-65
2022/09/25 13:50:19;;;;;;;1.80;0.60;;;16.50;99.90;;;;;;4824671;29;20039;-65
2022/09/25 13:52:44;;;;;;;3.10;0.68;;;16.70;99.90;;;;;;4824736;29;20049;-65
2022/09/25 13:55:22;;;;;;;3.85;0.63;;;16.70;99.90;;;;;;4824437;29;20042;-65
2022/09/25 13:58:00;;;;;;;2.65;0.80;;;16.70;99.90;;;;;;4824508;29;20042;-65